createdAt,value
2023-02-12T00:00:38.136Z,6.60
2023-02-12T00:02:48.152Z,6.59
2023-02-12T00:04:52.871Z,6.62
2023-02-12T00:06:58.035Z,6.59
2023-02-12T00:09:03.558Z,6.57
2023-02-12T00:11:13.659Z,6.55
2023-02-12T00:13:21.136Z,6.55
2023-02-12T00:15:26.895Z,6.55
2023-02-12T00:17:32.093Z,6.57
2023-02-12T00:19:40.048Z,6.51
2023-02-12T00:21:46.595Z,6.53
2023-02-12T00:23:54.169Z,6.50
2023-02-12T00:25:59.005Z,6.50
2023-02-12T00:28:04.007Z,6.48
2023-02-12T00:30:10.470Z,6.46
2023-02-12T00:32:19.697Z,6.48
2023-02-12T00:34:25.290Z,6.45
2023-02-12T00:36:34.828Z,6.46
2023-02-12T00:38:40.010Z,6.45
2023-02-12T00:40:47.944Z,6.43
2023-02-12T00:42:53.901Z,6.44
2023-02-12T00:44:58.926Z,6.41
2023-02-12T00:47:04.068Z,6.47
2023-02-12T00:49:12.121Z,6.44
2023-02-12T00:51:17.700Z,6.42
2023-02-12T00:53:26.052Z,6.42
2023-02-12T00:55:33.525Z,6.40
2023-02-12T00:57:39.945Z,6.43
2023-02-12T00:59:48.250Z,6.40
2023-02-12T01:01:53.326Z,6.40
2023-02-12T01:03:59.472Z,6.37
2023-02-12T01:06:04.509Z,6.37
2023-02-12T01:08:10.176Z,6.37
2023-02-12T01:10:17.727Z,6.37
2023-02-12T01:12:22.637Z,6.34
2023-02-12T01:14:28.007Z,6.33
2023-02-12T01:16:36.570Z,6.35
2023-02-12T01:18:42.703Z,6.33
2023-02-12T01:20:47.781Z,6.32
2023-02-12T01:22:53.183Z,6.30
2023-02-12T01:25:00.743Z,6.28
2023-02-12T01:27:08.264Z,6.27
2023-02-12T01:29:13.671Z,6.26
2023-02-12T01:31:22.048Z,6.27
2023-02-12T01:33:27.417Z,6.27
2023-02-12T01:35:32.496Z,6.27
2023-02-12T01:37:39.415Z,6.26
2023-02-12T01:39:46.855Z,6.24
2023-02-12T01:41:51.903Z,6.26
2023-02-12T01:44:18.495Z,6.24
2023-02-12T01:46:23.530Z,6.23
2023-02-12T01:48:31.945Z,6.23
2023-02-12T01:50:37.397Z,6.23
2023-02-12T01:52:48.741Z,6.22
2023-02-12T01:54:57.267Z,6.21
2023-02-12T01:57:03.731Z,6.19
2023-02-12T01:59:14.190Z,6.19
2023-02-12T02:01:24.812Z,6.18
2023-02-12T02:03:30.969Z,6.14
2023-02-12T02:05:46.100Z,6.15
2023-02-12T02:07:51.720Z,6.12
2023-02-12T02:09:58.001Z,6.14
2023-02-12T02:12:30.184Z,6.16
2023-02-12T02:14:37.731Z,6.15
2023-02-12T02:16:46.661Z,6.18
2023-02-12T02:18:58.880Z,6.16
2023-02-12T02:21:22.827Z,6.14
2023-02-12T02:24:03.717Z,6.14
2023-02-12T02:26:31.363Z,6.12
2023-02-12T02:28:56.381Z,6.10
2023-02-12T02:31:11.419Z,6.10
2023-02-12T02:33:39.204Z,6.07
2023-02-12T02:35:57.995Z,6.06
2023-02-12T02:38:21.270Z,6.06
2023-02-12T02:40:28.706Z,6.07
2023-02-12T02:42:40.006Z,6.05
2023-02-12T02:44:51.439Z,6.04
2023-02-12T02:47:01.593Z,6.06
2023-02-12T02:49:09.292Z,6.07
2023-02-12T02:51:23.212Z,6.09
2023-02-12T02:53:32.911Z,6.08
2023-02-12T02:55:51.955Z,6.07
2023-02-12T02:58:00.789Z,6.05
2023-02-12T03:00:16.213Z,6.08
2023-02-12T03:02:28.311Z,6.07
2023-02-12T03:04:37.655Z,6.07
2023-02-12T03:06:49.474Z,6.07
2023-02-12T03:09:01.088Z,6.07
2023-02-12T03:11:13.098Z,6.05
2023-02-12T03:13:23.318Z,6.04
2023-02-12T03:15:35.160Z,6.07
2023-02-12T03:17:48.177Z,6.05
2023-02-12T03:19:59.224Z,6.03
2023-02-12T03:22:07.718Z,6.01
2023-02-12T03:24:17.565Z,6.04
2023-02-12T03:26:28.627Z,6.03
2023-02-12T03:28:36.694Z,6.03
2023-02-12T03:30:48.923Z,6.03
2023-02-12T03:33:04.972Z,6.05
2023-02-12T03:35:16.707Z,6.05
2023-02-12T03:37:25.226Z,6.04
2023-02-12T03:39:33.759Z,6.06
2023-02-12T03:41:46.679Z,6.09
2023-02-12T03:43:55.584Z,6.09
2023-02-12T03:46:09.688Z,6.12
2023-02-12T03:48:24.953Z,6.09
2023-02-12T03:50:39.389Z,6.07
2023-02-12T03:52:45.333Z,6.07
2023-02-12T03:54:50.853Z,6.06
2023-02-12T03:57:01.827Z,6.06
2023-02-12T03:59:07.735Z,6.06
2023-02-12T04:01:13.298Z,6.05
2023-02-12T04:03:21.120Z,6.05
2023-02-12T04:05:28.859Z,6.03
2023-02-12T04:07:33.867Z,6.03
2023-02-12T04:09:41.871Z,6.03
2023-02-12T04:11:58.504Z,6.02
2023-02-12T04:14:17.047Z,6.01
2023-02-12T04:16:30.732Z,5.97
2023-02-12T04:18:47.535Z,5.97
2023-02-12T04:21:01.564Z,5.96
2023-02-12T04:23:16.590Z,5.96
2023-02-12T04:25:38.390Z,5.99
2023-02-12T04:27:51.876Z,6.00
2023-02-12T04:30:01.364Z,6.05
2023-02-12T04:32:15.251Z,6.06
2023-02-12T04:34:34.270Z,6.03
2023-02-12T04:36:46.172Z,6.00
2023-02-12T04:38:56.912Z,6.04
2023-02-12T04:41:03.752Z,6.08
2023-02-12T04:43:09.456Z,6.04
2023-02-12T04:45:16.128Z,6.04
2023-02-12T04:47:23.847Z,6.05
2023-02-12T04:49:32.327Z,6.04
2023-02-12T04:51:37.373Z,6.03
2023-02-12T04:53:42.249Z,5.99
2023-02-12T04:55:47.916Z,6.02
2023-02-12T04:57:52.802Z,6.04
2023-02-12T04:59:57.877Z,6.05
2023-02-12T05:02:02.958Z,6.04
2023-02-12T05:04:09.901Z,6.01
2023-02-12T05:06:17.500Z,5.98
2023-02-12T05:08:22.617Z,5.97
2023-02-12T05:10:27.516Z,5.95
2023-02-12T05:12:32.890Z,5.97
2023-02-12T05:14:37.944Z,5.93
2023-02-12T05:16:43.028Z,5.92
2023-02-12T05:18:48.255Z,5.92
2023-02-12T05:20:58.960Z,5.93
2023-02-12T05:23:06.858Z,5.96
2023-02-12T05:25:11.988Z,5.98
2023-02-12T05:27:16.936Z,5.99
2023-02-12T05:29:22.111Z,5.96
2023-02-12T05:31:27.264Z,5.95
2023-02-12T05:33:32.580Z,5.96
2023-02-12T05:35:38.083Z,5.96
2023-02-12T05:37:42.990Z,5.96
2023-02-12T05:39:55.352Z,5.97
2023-02-12T05:42:00.492Z,5.94
2023-02-12T05:44:07.220Z,5.92
2023-02-12T05:46:12.983Z,5.92
2023-02-12T05:48:18.211Z,5.92
2023-02-12T05:50:23.339Z,5.94
2023-02-12T05:52:28.306Z,5.96
2023-02-12T05:54:33.512Z,5.94
2023-02-12T05:56:45.293Z,5.90
2023-02-12T05:58:52.309Z,5.89
2023-02-12T06:00:59.618Z,5.86
2023-02-12T06:03:06.223Z,5.84
2023-02-12T06:05:11.433Z,5.85
2023-02-12T06:07:16.418Z,5.88
2023-02-12T06:09:21.286Z,5.90
2023-02-12T06:11:26.564Z,5.89
2023-02-12T06:13:37.282Z,5.89
2023-02-12T06:15:42.209Z,5.86
2023-02-12T06:17:46.933Z,5.84
2023-02-12T06:19:51.913Z,5.84
2023-02-12T06:21:57.013Z,5.83
2023-02-12T06:24:02.931Z,5.85
2023-02-12T06:26:07.980Z,5.83
2023-02-12T06:28:12.812Z,5.82
2023-02-12T06:30:20.726Z,5.79
2023-02-12T06:32:25.767Z,5.80
2023-02-12T06:34:30.678Z,5.83
2023-02-12T06:36:36.409Z,5.81
2023-02-12T06:38:41.270Z,5.80
2023-02-12T06:40:48.886Z,5.78
2023-02-12T06:42:53.570Z,5.77
2023-02-12T06:44:59.401Z,5.76
2023-02-12T06:47:07.166Z,5.77
2023-02-12T06:49:16.857Z,5.76
2023-02-12T06:51:23.588Z,5.78
2023-02-12T06:53:28.896Z,5.77
2023-02-12T06:55:34.314Z,5.77
2023-02-12T06:57:40.033Z,5.76
2023-02-12T06:59:45.103Z,5.76
2023-02-12T07:01:50.068Z,5.77
2023-02-12T07:03:59.560Z,5.79
2023-02-12T07:06:06.695Z,5.79
2023-02-12T07:08:11.892Z,5.78
2023-02-12T07:10:16.710Z,5.78
2023-02-12T07:12:21.539Z,5.79
2023-02-12T07:14:26.843Z,5.80
2023-02-12T07:16:32.435Z,5.82
2023-02-12T07:18:37.848Z,5.79
2023-02-12T07:20:45.414Z,5.80
2023-02-12T07:22:52.714Z,5.81
2023-02-12T07:24:57.657Z,5.82
2023-02-12T07:27:02.944Z,5.74
2023-02-12T07:29:08.410Z,5.79
2023-02-12T07:31:15.411Z,5.78
2023-02-12T07:33:20.927Z,5.76
2023-02-12T07:35:25.861Z,5.74
2023-02-12T07:37:37.289Z,5.77
2023-02-12T07:39:42.205Z,5.78
2023-02-12T07:41:47.102Z,5.73
2023-02-12T07:43:56.730Z,5.82
2023-02-12T07:46:09.545Z,5.83
2023-02-12T07:48:14.618Z,5.83
2023-02-12T07:50:19.918Z,5.86
2023-02-12T07:52:24.843Z,5.87
2023-02-12T07:54:32.532Z,5.89
2023-02-12T07:56:42.069Z,5.90
2023-02-12T07:58:51.420Z,5.93
2023-02-12T08:00:56.555Z,5.91
2023-02-12T08:03:01.472Z,5.95
2023-02-12T08:05:06.358Z,5.95
2023-02-12T08:07:11.452Z,5.95
2023-02-12T08:09:19.167Z,5.98
2023-02-12T08:11:27.582Z,6.00
2023-02-12T08:13:32.508Z,6.01
2023-02-12T08:15:37.632Z,6.02
2023-02-12T08:17:43.709Z,6.04
2023-02-12T08:19:51.405Z,6.06
2023-02-12T08:21:58.032Z,6.07
2023-02-12T08:24:03.819Z,6.10
2023-02-12T08:26:14.293Z,6.14
2023-02-12T08:28:23.388Z,6.22
2023-02-12T08:30:28.425Z,6.28
2023-02-12T08:32:33.964Z,6.24
2023-02-12T08:34:41.326Z,6.30
2023-02-12T08:36:46.587Z,6.33
2023-02-12T08:38:52.037Z,6.29
2023-02-12T08:40:59.012Z,6.33
2023-02-12T08:43:03.962Z,6.38
2023-02-12T08:45:12.916Z,6.40
2023-02-12T08:47:17.839Z,6.48
2023-02-12T08:49:25.399Z,6.47
2023-02-12T08:51:33.150Z,6.52
2023-02-12T08:53:38.214Z,6.54
2023-02-12T08:55:43.120Z,6.57
2023-02-12T08:57:48.043Z,6.65
2023-02-12T08:59:52.860Z,6.69
2023-02-12T09:02:01.045Z,6.68
2023-02-12T09:04:06.198Z,6.75
2023-02-12T09:06:12.262Z,6.78
2023-02-12T09:08:17.016Z,6.79
2023-02-12T09:10:22.226Z,6.80
2023-02-12T09:12:27.055Z,6.81
2023-02-12T09:14:32.191Z,6.80
2023-02-12T09:16:40.062Z,6.80
2023-02-12T09:18:50.139Z,6.81
2023-02-12T09:20:57.491Z,6.83
2023-02-12T09:23:02.536Z,6.86
2023-02-12T09:25:08.206Z,6.91
2023-02-12T09:27:13.115Z,6.94
2023-02-12T09:29:17.985Z,6.89
2023-02-12T09:31:26.748Z,7.00
2023-02-12T09:33:31.756Z,7.00
2023-02-12T09:35:41.275Z,7.07
2023-02-12T09:37:46.694Z,7.12
2023-02-12T09:39:51.722Z,7.12
2023-02-12T09:42:23.136Z,7.15
2023-02-12T09:44:36.107Z,7.16
2023-02-12T09:46:52.875Z,7.19
2023-02-12T09:49:08.746Z,7.22
2023-02-12T09:51:17.138Z,7.23
2023-02-12T09:53:24.446Z,7.25
2023-02-12T09:55:32.981Z,7.28
2023-02-12T09:57:40.583Z,7.31
2023-02-12T09:59:50.851Z,7.32
2023-02-12T10:01:55.713Z,7.33
2023-02-12T10:04:04.201Z,7.37
2023-02-12T10:06:16.782Z,7.40
2023-02-12T10:08:43.922Z,7.44
2023-02-12T10:10:54.719Z,7.46
2023-02-12T10:13:03.057Z,7.53
2023-02-12T10:15:24.011Z,7.55
2023-02-12T10:17:43.328Z,7.55
2023-02-12T10:20:11.145Z,7.62
2023-02-12T10:22:27.204Z,7.68
2023-02-12T10:25:02.422Z,7.69
2023-02-12T10:27:15.161Z,7.72
2023-02-12T10:29:23.344Z,7.73
2023-02-12T10:31:33.317Z,7.75
2023-02-12T10:33:40.701Z,7.79
2023-02-12T10:35:50.625Z,7.78
2023-02-12T10:38:00.598Z,7.84
2023-02-12T10:40:19.620Z,7.89
2023-02-12T10:42:38.690Z,7.95
2023-02-12T10:44:43.613Z,7.99
2023-02-12T10:46:49.905Z,8.02
2023-02-12T10:48:59.030Z,8.07
2023-02-12T10:51:26.350Z,8.08
2023-02-12T10:53:36.494Z,8.08
2023-02-12T10:55:44.339Z,8.16
2023-02-12T10:57:50.842Z,8.15
2023-02-12T10:59:58.971Z,8.19
2023-02-12T11:02:04.071Z,8.20
2023-02-12T11:04:27.576Z,8.19
2023-02-12T11:06:33.330Z,8.24
2023-02-12T11:08:41.862Z,8.21
2023-02-12T11:10:49.875Z,8.23
2023-02-12T11:12:54.893Z,8.27
2023-02-12T11:15:04.915Z,8.30
2023-02-12T11:17:09.916Z,8.36
2023-02-12T11:19:24.577Z,8.33
2023-02-12T11:21:29.844Z,8.32
2023-02-12T11:23:37.296Z,8.27
2023-02-12T11:25:57.381Z,8.26
2023-02-12T11:28:11.649Z,8.25
2023-02-12T11:30:24.783Z,8.32
2023-02-12T11:32:30.024Z,8.33
2023-02-12T11:34:35.113Z,8.30
2023-02-12T11:36:44.042Z,8.34
2023-02-12T11:38:54.789Z,8.33
2023-02-12T11:41:07.143Z,8.39
2023-02-12T11:43:21.212Z,8.35
2023-02-12T11:45:33.141Z,8.34
2023-02-12T11:47:44.531Z,8.25
2023-02-12T11:49:56.879Z,8.28
2023-02-12T11:52:07.155Z,8.29
2023-02-12T11:54:23.768Z,8.30
2023-02-12T11:56:50.884Z,8.35
2023-02-12T11:59:31.949Z,8.39
2023-02-12T12:01:42.070Z,8.43
2023-02-12T12:03:56.015Z,8.43
2023-02-12T12:06:08.049Z,8.49
2023-02-12T12:08:20.810Z,8.40
2023-02-12T12:10:38.133Z,8.49
2023-02-12T12:12:48.864Z,8.45
2023-02-12T12:15:12.416Z,8.47
2023-02-12T12:17:32.532Z,8.42
2023-02-12T12:19:56.824Z,8.40
2023-02-12T12:22:07.376Z,8.35
2023-02-12T12:24:16.779Z,8.35
2023-02-12T12:26:27.949Z,8.40
2023-02-12T12:28:39.282Z,8.44
2023-02-12T12:31:05.084Z,8.42
2023-02-12T12:33:20.276Z,8.40
2023-02-12T12:35:39.343Z,8.36
2023-02-12T12:37:55.949Z,8.30
2023-02-12T12:40:15.168Z,8.25
2023-02-12T12:42:51.806Z,8.28
2023-02-12T12:45:18.887Z,8.38
2023-02-12T12:47:39.804Z,8.35
2023-02-12T12:50:08.011Z,8.30
2023-02-12T12:52:51.553Z,8.32
2023-02-12T12:55:07.077Z,8.35
2023-02-12T12:57:26.144Z,8.30
2023-02-12T13:00:00.772Z,8.35
2023-02-12T13:02:44.248Z,8.35
2023-02-12T13:05:21.442Z,8.36
2023-02-12T13:07:47.766Z,8.40
2023-02-12T13:10:10.015Z,8.36
2023-02-12T13:12:36.725Z,8.37
2023-02-12T13:14:51.162Z,8.39
2023-02-12T13:17:04.306Z,8.34
2023-02-12T13:19:18.651Z,8.40
2023-02-12T13:21:42.003Z,8.41
2023-02-12T13:23:55.561Z,8.38
2023-02-12T13:26:08.536Z,8.38
2023-02-12T13:28:19.786Z,8.41
2023-02-12T13:30:28.181Z,8.36
2023-02-12T13:32:37.706Z,8.31
2023-02-12T13:34:48.364Z,8.35
2023-02-12T13:37:01.405Z,8.31
2023-02-12T13:39:10.344Z,8.34
2023-02-12T13:41:16.460Z,8.39
2023-02-12T13:43:39.392Z,8.35
2023-02-12T13:45:53.748Z,8.34
2023-02-12T13:48:19.882Z,8.29
2023-02-12T13:50:38.327Z,8.20
2023-02-12T13:52:53.912Z,8.18
2023-02-12T13:55:18.120Z,8.19
2023-02-12T13:57:24.754Z,8.18
2023-02-12T13:59:50.841Z,8.09
2023-02-12T14:01:56.869Z,8.11
2023-02-12T14:04:18.250Z,8.19
2023-02-12T14:06:25.370Z,8.18
2023-02-12T14:08:40.260Z,8.22
2023-02-12T14:10:45.555Z,8.19
2023-02-12T14:12:54.161Z,8.24
2023-02-12T14:15:09.961Z,8.11
2023-02-12T14:17:55.949Z,8.10
2023-02-12T14:20:25.129Z,8.26
2023-02-12T14:23:17.528Z,8.06
2023-02-12T14:25:44.232Z,7.99
2023-02-12T14:27:54.105Z,8.01
2023-02-12T14:30:30.007Z,8.01
2023-02-12T14:33:22.248Z,7.92
2023-02-12T14:35:41.990Z,7.93
2023-02-12T14:37:47.153Z,7.96
2023-02-12T14:39:52.196Z,7.89
2023-02-12T14:42:37.316Z,7.83
2023-02-12T14:44:52.255Z,7.88
2023-02-12T14:47:02.907Z,7.90
2023-02-12T14:49:08.774Z,7.90
2023-02-12T14:51:21.388Z,7.93
2023-02-12T14:53:32.874Z,7.86
2023-02-12T14:55:43.766Z,7.98
2023-02-12T14:57:52.315Z,7.84
2023-02-12T15:00:04.484Z,7.91
2023-02-12T15:02:16.852Z,7.76
2023-02-12T15:04:28.427Z,7.78
2023-02-12T15:06:44.717Z,7.75
2023-02-12T15:08:57.408Z,7.77
2023-02-12T15:11:12.369Z,7.77
2023-02-12T15:13:29.712Z,7.71
2023-02-12T15:15:45.932Z,7.66
2023-02-12T15:18:01.153Z,7.65
2023-02-12T15:20:11.341Z,7.61
2023-02-12T15:22:24.500Z,7.63
2023-02-12T15:24:30.939Z,7.68
2023-02-12T15:26:41.422Z,7.70
2023-02-12T15:28:50.927Z,7.60
2023-02-12T15:31:00.418Z,7.56
2023-02-12T15:33:08.005Z,7.62
2023-02-12T15:35:26.796Z,7.54
2023-02-12T15:37:36.962Z,7.56
2023-02-12T15:39:47.025Z,7.49
2023-02-12T15:41:53.076Z,7.49
2023-02-12T15:44:01.517Z,7.50
2023-02-12T15:46:18.282Z,7.51
2023-02-12T15:48:25.813Z,7.62
2023-02-12T15:50:32.965Z,7.56
2023-02-12T15:52:42.674Z,7.64
2023-02-12T15:54:52.620Z,7.67
2023-02-12T15:56:58.815Z,7.66
2023-02-12T15:59:05.398Z,7.65
2023-02-12T16:01:22.509Z,7.57
2023-02-12T16:03:30.673Z,7.53
2023-02-12T16:05:36.553Z,7.54
2023-02-12T16:07:41.793Z,7.40
2023-02-12T16:09:47.877Z,7.42
2023-02-12T16:11:54.615Z,7.42
2023-02-12T16:14:03.974Z,7.43
2023-02-12T16:16:22.338Z,7.42
2023-02-12T16:18:29.228Z,7.41
2023-02-12T16:20:38.205Z,7.42
2023-02-12T16:22:48.149Z,7.39
2023-02-12T16:24:56.768Z,7.35
2023-02-12T16:27:10.826Z,7.39
2023-02-12T16:29:20.831Z,7.36
2023-02-12T16:31:30.981Z,7.32
2023-02-12T16:33:38.983Z,7.33
2023-02-12T16:35:43.953Z,7.32
2023-02-12T16:37:51.682Z,7.41
2023-02-12T16:40:22.745Z,7.36
2023-02-12T16:42:30.563Z,7.31
2023-02-12T16:44:37.557Z,7.33
2023-02-12T16:46:55.738Z,7.27
2023-02-12T16:49:03.880Z,7.21
2023-02-12T16:51:09.424Z,7.18
2023-02-12T16:53:28.818Z,7.19
2023-02-12T16:55:34.610Z,7.14
2023-02-12T16:57:39.936Z,7.17
2023-02-12T16:59:45.566Z,7.16
2023-02-12T17:02:04.306Z,7.14
2023-02-12T17:04:18.247Z,7.19
2023-02-12T17:06:24.826Z,7.16
2023-02-12T17:08:29.846Z,7.13
2023-02-12T17:10:35.180Z,7.12
2023-02-12T17:12:50.807Z,7.11
2023-02-12T17:14:59.481Z,7.10
2023-02-12T17:17:07.217Z,7.09
2023-02-12T17:19:12.127Z,7.05
2023-02-12T17:21:29.207Z,7.05
2023-02-12T17:23:35.380Z,7.03
2023-02-12T17:25:40.618Z,7.03
2023-02-12T17:27:48.621Z,7.04
2023-02-12T17:29:53.680Z,7.02
2023-02-12T17:31:59.938Z,7.01
2023-02-12T17:34:08.627Z,6.95
2023-02-12T17:36:15.206Z,6.97
2023-02-12T17:38:20.271Z,6.99
2023-02-12T17:40:25.349Z,7.00
2023-02-12T17:42:31.310Z,6.98
2023-02-12T17:44:40.178Z,6.94
2023-02-12T17:46:47.035Z,6.92
2023-02-12T17:48:51.868Z,6.89
2023-02-12T17:51:01.256Z,6.88
2023-02-12T17:53:06.779Z,6.88
2023-02-12T17:55:14.054Z,6.90
2023-02-12T17:57:21.695Z,6.92
2023-02-12T17:59:26.623Z,6.93
2023-02-12T18:01:31.677Z,6.92
2023-02-12T18:03:36.901Z,6.92
2023-02-12T18:05:45.342Z,6.90
2023-02-12T18:07:53.122Z,6.88
2023-02-12T18:09:57.937Z,6.90
2023-02-12T18:12:02.755Z,6.91
2023-02-12T18:14:08.009Z,6.98
2023-02-12T18:16:17.937Z,6.96
2023-02-12T18:18:22.791Z,6.95
2023-02-12T18:20:27.718Z,6.98
2023-02-12T18:22:32.858Z,6.96
2023-02-12T18:24:41.489Z,6.95
2023-02-12T18:26:46.730Z,6.93
2023-02-12T18:28:54.011Z,6.91
2023-02-12T18:31:01.415Z,6.92
2023-02-12T18:33:07.048Z,6.90
2023-02-12T18:35:12.459Z,6.92
2023-02-12T18:37:17.719Z,6.91
2023-02-12T18:39:22.664Z,6.94
2023-02-12T18:41:33.072Z,6.94
2023-02-12T18:43:38.678Z,6.93
2023-02-12T18:45:46.898Z,6.94
2023-02-12T18:47:52.006Z,6.92
2023-02-12T18:49:58.185Z,6.90
2023-02-12T18:52:03.111Z,6.89
2023-02-12T18:54:15.166Z,6.88
2023-02-12T18:56:20.325Z,6.89
2023-02-12T18:58:27.917Z,6.85
2023-02-12T19:00:33.023Z,6.80
2023-02-12T19:02:38.449Z,6.85
2023-02-12T19:04:43.447Z,6.87
2023-02-12T19:06:50.577Z,6.87
2023-02-12T19:08:57.957Z,6.91
2023-02-12T19:11:02.856Z,6.89
2023-02-12T19:13:07.821Z,6.90
2023-02-12T19:15:15.588Z,6.88
2023-02-12T19:17:20.537Z,6.84
2023-02-12T19:19:25.975Z,6.82
2023-02-12T19:21:31.359Z,6.79
2023-02-12T19:23:36.859Z,6.79
2023-02-12T19:25:44.615Z,6.75
2023-02-12T19:27:49.959Z,6.76
2023-02-12T19:29:54.829Z,6.77
2023-02-12T19:32:03.666Z,6.78
2023-02-12T19:34:16.573Z,6.80
2023-02-12T19:36:23.048Z,6.92
2023-02-12T19:38:28.474Z,6.89
2023-02-12T19:40:34.189Z,6.86
2023-02-12T19:42:40.082Z,6.84
2023-02-12T19:44:46.800Z,6.81
2023-02-12T19:46:53.126Z,6.86
2023-02-12T19:49:03.373Z,6.84
2023-02-12T19:51:10.335Z,6.85
2023-02-12T19:53:15.427Z,6.83
2023-02-12T19:55:20.621Z,6.81
2023-02-12T19:57:25.559Z,6.80
2023-02-12T19:59:30.471Z,6.81
2023-02-12T20:01:36.371Z,6.86
2023-02-12T20:03:42.405Z,6.87
2023-02-12T20:05:53.195Z,6.91
2023-02-12T20:07:58.292Z,6.95
2023-02-12T20:10:06.603Z,6.85
2023-02-12T20:12:11.682Z,6.85
2023-02-12T20:14:21.100Z,6.79
2023-02-12T20:16:31.367Z,6.79
2023-02-12T20:18:37.313Z,6.80
2023-02-12T20:20:42.957Z,6.81
2023-02-12T20:22:53.793Z,6.79
2023-02-12T20:24:59.191Z,6.79
2023-02-12T20:27:07.017Z,6.80
2023-02-12T20:29:12.411Z,6.79
2023-02-12T20:31:19.675Z,6.80
2023-02-12T20:33:24.717Z,6.84
2023-02-12T20:35:29.859Z,6.81
2023-02-12T20:37:38.673Z,6.79
2023-02-12T20:39:46.855Z,6.75
2023-02-12T20:41:52.522Z,6.74
2023-02-12T20:43:58.136Z,6.76
2023-02-12T20:46:08.736Z,6.75
2023-02-12T20:48:13.583Z,6.78
2023-02-12T20:50:20.872Z,6.78
2023-02-12T20:52:27.259Z,6.80
2023-02-12T20:54:32.214Z,6.77
2023-02-12T20:56:44.641Z,6.76
2023-02-12T20:58:50.765Z,6.76
2023-02-12T21:00:56.187Z,6.78
2023-02-12T21:03:04.096Z,6.77
2023-02-12T21:05:12.481Z,6.80
2023-02-12T21:07:18.555Z,6.78
2023-02-12T21:09:23.824Z,6.78
2023-02-12T21:11:30.813Z,6.77
2023-02-12T21:13:39.915Z,6.84
2023-02-12T21:15:45.186Z,6.87
2023-02-12T21:17:50.493Z,6.85
2023-02-12T21:19:55.621Z,6.83
2023-02-12T21:22:00.736Z,6.78
2023-02-12T21:24:11.219Z,6.79
2023-02-12T21:26:18.709Z,6.81
2023-02-12T21:28:26.693Z,6.85
2023-02-12T21:30:36.753Z,6.80
2023-02-12T21:32:41.811Z,6.84
2023-02-12T21:34:48.653Z,6.80
2023-02-12T21:36:58.953Z,6.78
2023-02-12T21:39:04.219Z,6.74
2023-02-12T21:41:11.783Z,6.77
2023-02-12T21:43:16.876Z,6.85
2023-02-12T21:45:21.924Z,6.86
2023-02-12T21:47:29.821Z,6.87
2023-02-12T21:49:35.170Z,6.81
2023-02-12T21:51:42.994Z,6.81
2023-02-12T21:53:48.207Z,6.80
2023-02-12T21:55:53.224Z,6.80
2023-02-12T21:57:58.158Z,6.79
2023-02-12T22:00:06.843Z,6.73
2023-02-12T22:02:13.581Z,6.76
2023-02-12T22:04:22.040Z,6.74
2023-02-12T22:06:27.645Z,6.73
2023-02-12T22:08:33.159Z,6.71
2023-02-12T22:10:40.285Z,6.67
2023-02-12T22:12:45.476Z,6.67
2023-02-12T22:14:53.215Z,6.66
2023-02-12T22:16:58.116Z,6.63
2023-02-12T22:19:04.634Z,6.63
2023-02-12T22:21:14.799Z,6.69
2023-02-12T22:23:19.672Z,6.65
2023-02-12T22:25:24.711Z,6.59
2023-02-12T22:27:29.659Z,6.58
2023-02-12T22:29:34.574Z,6.54
2023-02-12T22:31:42.477Z,6.57
2023-02-12T22:33:48.799Z,6.55
2023-02-12T22:35:53.793Z,6.55
2023-02-12T22:38:05.334Z,6.56
2023-02-12T22:40:12.541Z,6.56
2023-02-12T22:42:18.698Z,6.55
2023-02-12T22:44:23.583Z,6.56
2023-02-12T22:46:28.865Z,6.56
2023-02-12T22:48:33.724Z,6.56
2023-02-12T22:50:41.335Z,6.54
2023-02-12T22:52:47.588Z,6.52
2023-02-12T22:54:55.514Z,6.48
2023-02-12T22:57:00.572Z,6.50
2023-02-12T22:59:05.594Z,6.50
2023-02-12T23:01:11.757Z,6.47
2023-02-12T23:03:17.612Z,6.51
2023-02-12T23:05:22.696Z,6.50
2023-02-12T23:07:27.750Z,6.52
2023-02-12T23:09:33.051Z,6.48
2023-02-12T23:11:40.530Z,6.43
2023-02-12T23:13:48.783Z,6.44
2023-02-12T23:15:57.578Z,6.42
2023-02-12T23:18:02.479Z,6.41
2023-02-12T23:20:08.277Z,6.40
2023-02-12T23:22:13.286Z,6.44
2023-02-12T23:24:18.352Z,6.52
2023-02-12T23:26:25.537Z,6.50
2023-02-12T23:28:33.493Z,6.50
2023-02-12T23:30:39.376Z,6.50
2023-02-12T23:32:48.270Z,6.52
2023-02-12T23:35:02.543Z,6.49
2023-02-12T23:37:07.755Z,6.47
2023-02-12T23:39:15.190Z,6.44
2023-02-12T23:41:20.228Z,6.53
2023-02-12T23:43:25.310Z,6.53
2023-02-12T23:45:32.957Z,6.51
2023-02-12T23:47:38.087Z,6.53
2023-02-12T23:49:43.119Z,6.55
2023-02-12T23:51:49.783Z,6.42
2023-02-12T23:53:54.928Z,6.41
2023-02-12T23:56:00.472Z,6.42
2023-02-12T23:58:05.646Z,6.48
